sensor_id;sensor_type;location;lat;lon;timestamp;temperature;humidity
19622;DHT22;9958;33.196;-97.114;2023-08-30T00:00:01;34.50;45.10
19622;DHT22;9958;33.196;-97.114;2023-08-30T00:02:29;34.40;44.90
19622;DHT22;9958;33.196;-97.114;2023-08-30T00:04:59;34.40;45.20
19622;DHT22;9958;33.196;-97.114;2023-08-30T00:07:27;34.30;45.30
19622;DHT22;9958;33.196;-97.114;2023-08-30T00:09:58;34.30;45.40
19622;DHT22;9958;33.196;-97.114;2023-08-30T00:12:27;34.20;45.50
19622;DHT22;9958;33.196;-97.114;2023-08-30T00:14:55;34.20;45.50
19622;DHT22;9958;33.196;-97.114;2023-08-30T00:17:24;34.10;45.70
19622;DHT22;9958;33.196;-97.114;2023-08-30T00:19:52;34.10;46.00
19622;DHT22;9958;33.196;-97.114;2023-08-30T00:22:21;34.00;46.10
19622;DHT22;9958;33.196;-97.114;2023-08-30T00:24:50;33.90;46.30
19622;DHT22;9958;33.196;-97.114;2023-08-30T00:27:20;34.00;46.40
19622;DHT22;9958;33.196;-97.114;2023-08-30T00:29:49;33.80;46.40
19622;DHT22;9958;33.196;-97.114;2023-08-30T00:32:17;33.80;46.50
19622;DHT22;9958;33.196;-97.114;2023-08-30T00:34:46;33.80;46.90
19622;DHT22;9958;33.196;-97.114;2023-08-30T00:37:14;33.70;46.90
19622;DHT22;9958;33.196;-97.114;2023-08-30T00:39:42;33.70;46.90
19622;DHT22;9958;33.196;-97.114;2023-08-30T00:42:11;33.60;47.00
19622;DHT22;9958;33.196;-97.114;2023-08-30T00:44:41;33.60;47.10
19622;DHT22;9958;33.196;-97.114;2023-08-30T00:47:09;33.50;47.10
19622;DHT22;9958;33.196;-97.114;2023-08-30T00:49:37;33.40;47.10
19622;DHT22;9958;33.196;-97.114;2023-08-30T00:52:10;33.40;47.20
19622;DHT22;9958;33.196;-97.114;2023-08-30T00:54:39;33.40;47.40
19622;DHT22;9958;33.196;-97.114;2023-08-30T00:57:08;33.30;47.50
19622;DHT22;9958;33.196;-97.114;2023-08-30T00:59:37;33.20;47.50
19622;DHT22;9958;33.196;-97.114;2023-08-30T01:02:07;33.10;47.50
19622;DHT22;9958;33.196;-97.114;2023-08-30T01:04:35;33.10;48.40
19622;DHT22;9958;33.196;-97.114;2023-08-30T01:07:04;33.00;48.00
19622;DHT22;9958;33.196;-97.114;2023-08-30T01:09:32;32.90;48.10
19622;DHT22;9958;33.196;-97.114;2023-08-30T01:12:07;32.80;48.30
19622;DHT22;9958;33.196;-97.114;2023-08-30T01:14:45;32.70;48.30
19622;DHT22;9958;33.196;-97.114;2023-08-30T01:17:17;32.70;48.50
19622;DHT22;9958;33.196;-97.114;2023-08-30T01:19:50;32.60;48.90
19622;DHT22;9958;33.196;-97.114;2023-08-30T01:22:31;32.50;48.90
19622;DHT22;9958;33.196;-97.114;2023-08-30T01:25:14;32.40;49.10
19622;DHT22;9958;33.196;-97.114;2023-08-30T01:27:46;32.30;49.30
19622;DHT22;9958;33.196;-97.114;2023-08-30T01:30:16;32.20;49.70
19622;DHT22;9958;33.196;-97.114;2023-08-30T01:32:45;32.10;50.10
19622;DHT22;9958;33.196;-97.114;2023-08-30T01:35:15;32.10;50.10
19622;DHT22;9958;33.196;-97.114;2023-08-30T01:37:46;32.00;50.10
19622;DHT22;9958;33.196;-97.114;2023-08-30T01:40:16;31.90;50.70
19622;DHT22;9958;33.196;-97.114;2023-08-30T01:42:47;31.80;50.90
19622;DHT22;9958;33.196;-97.114;2023-08-30T01:45:16;31.70;51.00
19622;DHT22;9958;33.196;-97.114;2023-08-30T01:47:45;31.60;51.10
19622;DHT22;9958;33.196;-97.114;2023-08-30T01:50:14;31.60;51.10
19622;DHT22;9958;33.196;-97.114;2023-08-30T01:52:43;31.50;51.40
19622;DHT22;9958;33.196;-97.114;2023-08-30T01:55:13;31.40;51.50
19622;DHT22;9958;33.196;-97.114;2023-08-30T01:57:42;31.30;51.70
19622;DHT22;9958;33.196;-97.114;2023-08-30T02:00:13;31.30;51.80
19622;DHT22;9958;33.196;-97.114;2023-08-30T02:02:41;31.20;52.30
19622;DHT22;9958;33.196;-97.114;2023-08-30T02:05:10;31.10;52.40
19622;DHT22;9958;33.196;-97.114;2023-08-30T02:07:48;31.10;52.50
19622;DHT22;9958;33.196;-97.114;2023-08-30T02:10:24;31.00;52.60
19622;DHT22;9958;33.196;-97.114;2023-08-30T02:12:54;30.90;52.70
19622;DHT22;9958;33.196;-97.114;2023-08-30T02:15:25;30.80;52.90
19622;DHT22;9958;33.196;-97.114;2023-08-30T02:17:55;30.80;54.00
19622;DHT22;9958;33.196;-97.114;2023-08-30T02:20:24;30.80;53.50
19622;DHT22;9958;33.196;-97.114;2023-08-30T02:22:53;30.70;53.90
19622;DHT22;9958;33.196;-97.114;2023-08-30T02:25:22;30.60;54.10
19622;DHT22;9958;33.196;-97.114;2023-08-30T02:27:51;30.60;54.50
19622;DHT22;9958;33.196;-97.114;2023-08-30T02:30:20;30.50;54.70
19622;DHT22;9958;33.196;-97.114;2023-08-30T02:32:50;30.50;55.00
19622;DHT22;9958;33.196;-97.114;2023-08-30T02:35:18;30.40;54.90
19622;DHT22;9958;33.196;-97.114;2023-08-30T02:37:47;30.30;55.10
19622;DHT22;9958;33.196;-97.114;2023-08-30T02:40:15;30.30;55.50
19622;DHT22;9958;33.196;-97.114;2023-08-30T02:42:43;30.20;55.70
19622;DHT22;9958;33.196;-97.114;2023-08-30T02:45:12;30.10;56.00
19622;DHT22;9958;33.196;-97.114;2023-08-30T02:47:40;30.10;56.20
19622;DHT22;9958;33.196;-97.114;2023-08-30T02:50:10;30.00;56.10
19622;DHT22;9958;33.196;-97.114;2023-08-30T02:52:38;29.90;56.60
19622;DHT22;9958;33.196;-97.114;2023-08-30T02:55:07;29.90;56.60
19622;DHT22;9958;33.196;-97.114;2023-08-30T02:57:35;29.90;57.10
19622;DHT22;9958;33.196;-97.114;2023-08-30T03:00:06;29.80;57.00
19622;DHT22;9958;33.196;-97.114;2023-08-30T03:02:35;29.80;57.70
19622;DHT22;9958;33.196;-97.114;2023-08-30T03:05:04;29.70;57.30
19622;DHT22;9958;33.196;-97.114;2023-08-30T03:07:34;29.60;57.50
19622;DHT22;9958;33.196;-97.114;2023-08-30T03:10:02;29.60;57.50
19622;DHT22;9958;33.196;-97.114;2023-08-30T03:12:31;29.60;57.80
19622;DHT22;9958;33.196;-97.114;2023-08-30T03:14:59;29.50;57.60
19622;DHT22;9958;33.196;-97.114;2023-08-30T03:17:28;29.50;57.70
19622;DHT22;9958;33.196;-97.114;2023-08-30T03:19:56;29.50;58.00
19622;DHT22;9958;33.196;-97.114;2023-08-30T03:22:24;29.40;58.20
19622;DHT22;9958;33.196;-97.114;2023-08-30T03:24:54;29.40;58.20
19622;DHT22;9958;33.196;-97.114;2023-08-30T03:27:22;29.40;58.30
19622;DHT22;9958;33.196;-97.114;2023-08-30T03:29:51;29.40;58.40
19622;DHT22;9958;33.196;-97.114;2023-08-30T03:32:19;29.40;58.70
19622;DHT22;9958;33.196;-97.114;2023-08-30T03:34:48;29.30;59.10
19622;DHT22;9958;33.196;-97.114;2023-08-30T03:37:17;29.30;59.60
19622;DHT22;9958;33.196;-97.114;2023-08-30T03:39:45;29.20;59.70
19622;DHT22;9958;33.196;-97.114;2023-08-30T03:42:15;29.20;60.00
19622;DHT22;9958;33.196;-97.114;2023-08-30T03:44:44;29.10;60.70
19622;DHT22;9958;33.196;-97.114;2023-08-30T03:47:12;29.10;60.90
19622;DHT22;9958;33.196;-97.114;2023-08-30T03:49:40;29.00;61.50
19622;DHT22;9958;33.196;-97.114;2023-08-30T03:52:08;29.00;62.00
19622;DHT22;9958;33.196;-97.114;2023-08-30T03:54:37;28.90;62.30
19622;DHT22;9958;33.196;-97.114;2023-08-30T03:57:05;28.90;62.90
19622;DHT22;9958;33.196;-97.114;2023-08-30T03:59:35;28.80;63.10
19622;DHT22;9958;33.196;-97.114;2023-08-30T04:02:04;28.80;63.60
19622;DHT22;9958;33.196;-97.114;2023-08-30T04:04:32;28.80;64.20
19622;DHT22;9958;33.196;-97.114;2023-08-30T04:07:00;28.70;64.60
19622;DHT22;9958;33.196;-97.114;2023-08-30T04:09:28;28.60;65.00
19622;DHT22;9958;33.196;-97.114;2023-08-30T04:11:57;28.60;65.50
19622;DHT22;9958;33.196;-97.114;2023-08-30T04:14:26;28.60;65.90
19622;DHT22;9958;33.196;-97.114;2023-08-30T04:16:56;28.50;66.10
19622;DHT22;9958;33.196;-97.114;2023-08-30T04:19:25;28.40;66.20
19622;DHT22;9958;33.196;-97.114;2023-08-30T04:21:53;28.40;66.20
19622;DHT22;9958;33.196;-97.114;2023-08-30T04:24:21;28.40;67.20
19622;DHT22;9958;33.196;-97.114;2023-08-30T04:26:50;28.30;67.60
19622;DHT22;9958;33.196;-97.114;2023-08-30T04:29:19;28.30;68.10
19622;DHT22;9958;33.196;-97.114;2023-08-30T04:31:47;28.20;68.40
19622;DHT22;9958;33.196;-97.114;2023-08-30T04:34:17;28.20;68.50
19622;DHT22;9958;33.196;-97.114;2023-08-30T04:36:46;28.10;68.50
19622;DHT22;9958;33.196;-97.114;2023-08-30T04:39:14;28.10;69.10
19622;DHT22;9958;33.196;-97.114;2023-08-30T04:41:42;28.10;69.20
19622;DHT22;9958;33.196;-97.114;2023-08-30T04:44:11;28.00;69.60
19622;DHT22;9958;33.196;-97.114;2023-08-30T04:46:39;28.00;69.80
19622;DHT22;9958;33.196;-97.114;2023-08-30T04:49:07;28.00;70.30
19622;DHT22;9958;33.196;-97.114;2023-08-30T04:51:37;27.90;70.50
19622;DHT22;9958;33.196;-97.114;2023-08-30T04:54:06;27.90;71.10
19622;DHT22;9958;33.196;-97.114;2023-08-30T04:56:34;27.90;71.50
19622;DHT22;9958;33.196;-97.114;2023-08-30T04:59:02;27.80;71.90
19622;DHT22;9958;33.196;-97.114;2023-08-30T05:01:31;27.80;72.20
19622;DHT22;9958;33.196;-97.114;2023-08-30T05:03:59;27.80;72.40
19622;DHT22;9958;33.196;-97.114;2023-08-30T05:06:27;27.80;72.60
19622;DHT22;9958;33.196;-97.114;2023-08-30T05:08:57;27.80;73.00
19622;DHT22;9958;33.196;-97.114;2023-08-30T05:11:26;27.80;73.20
19622;DHT22;9958;33.196;-97.114;2023-08-30T05:13:54;27.80;73.30
19622;DHT22;9958;33.196;-97.114;2023-08-30T05:16:23;27.80;73.00
19622;DHT22;9958;33.196;-97.114;2023-08-30T05:18:51;27.80;73.60
19622;DHT22;9958;33.196;-97.114;2023-08-30T05:21:19;27.80;73.80
19622;DHT22;9958;33.196;-97.114;2023-08-30T05:23:48;27.80;74.70
19622;DHT22;9958;33.196;-97.114;2023-08-30T05:26:18;27.80;73.60
19622;DHT22;9958;33.196;-97.114;2023-08-30T05:28:47;27.80;73.80
19622;DHT22;9958;33.196;-97.114;2023-08-30T05:31:15;27.80;74.00
19622;DHT22;9958;33.196;-97.114;2023-08-30T05:33:43;27.80;73.80
19622;DHT22;9958;33.196;-97.114;2023-08-30T05:36:12;27.80;73.80
19622;DHT22;9958;33.196;-97.114;2023-08-30T05:38:40;27.80;74.20
19622;DHT22;9958;33.196;-97.114;2023-08-30T05:41:08;27.80;74.50
19622;DHT22;9958;33.196;-97.114;2023-08-30T05:43:38;27.80;75.00
19622;DHT22;9958;33.196;-97.114;2023-08-30T05:46:07;27.70;74.70
19622;DHT22;9958;33.196;-97.114;2023-08-30T05:48:40;27.70;74.50
19622;DHT22;9958;33.196;-97.114;2023-08-30T05:51:09;27.70;74.90
19622;DHT22;9958;33.196;-97.114;2023-08-30T05:53:37;27.70;75.30
19622;DHT22;9958;33.196;-97.114;2023-08-30T05:56:06;27.70;75.10
19622;DHT22;9958;33.196;-97.114;2023-08-30T05:58:34;27.70;75.50
19622;DHT22;9958;33.196;-97.114;2023-08-30T06:01:05;27.70;75.70
19622;DHT22;9958;33.196;-97.114;2023-08-30T06:03:34;27.70;75.60
19622;DHT22;9958;33.196;-97.114;2023-08-30T06:06:02;27.70;75.80
19622;DHT22;9958;33.196;-97.114;2023-08-30T06:08:31;27.60;75.70
19622;DHT22;9958;33.196;-97.114;2023-08-30T06:10:59;27.60;75.70
19622;DHT22;9958;33.196;-97.114;2023-08-30T06:13:27;27.60;75.70
19622;DHT22;9958;33.196;-97.114;2023-08-30T06:15:56;27.60;76.60
19622;DHT22;9958;33.196;-97.114;2023-08-30T06:18:29;27.60;76.30
19622;DHT22;9958;33.196;-97.114;2023-08-30T06:20:57;27.50;76.80
19622;DHT22;9958;33.196;-97.114;2023-08-30T06:23:26;27.50;76.80
19622;DHT22;9958;33.196;-97.114;2023-08-30T06:25:54;27.50;77.30
19622;DHT22;9958;33.196;-97.114;2023-08-30T06:28:23;27.50;77.50
19622;DHT22;9958;33.196;-97.114;2023-08-30T06:30:51;27.50;77.30
19622;DHT22;9958;33.196;-97.114;2023-08-30T06:33:20;27.40;77.30
19622;DHT22;9958;33.196;-97.114;2023-08-30T06:35:50;27.40;77.50
19622;DHT22;9958;33.196;-97.114;2023-08-30T06:38:19;27.30;78.30
19622;DHT22;9958;33.196;-97.114;2023-08-30T06:40:48;27.30;78.00
19622;DHT22;9958;33.196;-97.114;2023-08-30T06:43:17;27.30;78.20
19622;DHT22;9958;33.196;-97.114;2023-08-30T06:45:45;27.30;78.30
19622;DHT22;9958;33.196;-97.114;2023-08-30T06:48:14;27.20;78.10
19622;DHT22;9958;33.196;-97.114;2023-08-30T06:50:42;27.20;78.40
19622;DHT22;9958;33.196;-97.114;2023-08-30T06:53:12;27.20;78.50
19622;DHT22;9958;33.196;-97.114;2023-08-30T06:55:41;27.10;78.80
19622;DHT22;9958;33.196;-97.114;2023-08-30T06:58:09;27.10;78.70
19622;DHT22;9958;33.196;-97.114;2023-08-30T07:00:37;27.10;78.80
19622;DHT22;9958;33.196;-97.114;2023-08-30T07:03:06;27.00;79.10
19622;DHT22;9958;33.196;-97.114;2023-08-30T07:05:34;27.00;79.70
19622;DHT22;9958;33.196;-97.114;2023-08-30T07:08:05;27.00;80.40
19622;DHT22;9958;33.196;-97.114;2023-08-30T07:10:36;26.90;80.30
19622;DHT22;9958;33.196;-97.114;2023-08-30T07:13:04;26.90;80.30
19622;DHT22;9958;33.196;-97.114;2023-08-30T07:15:36;26.80;80.30
19622;DHT22;9958;33.196;-97.114;2023-08-30T07:18:05;26.80;80.60
19622;DHT22;9958;33.196;-97.114;2023-08-30T07:20:34;26.80;80.90
19622;DHT22;9958;33.196;-97.114;2023-08-30T07:23:03;26.70;81.20
19622;DHT22;9958;33.196;-97.114;2023-08-30T07:25:31;26.70;81.90
19622;DHT22;9958;33.196;-97.114;2023-08-30T07:28:04;26.70;82.20
19622;DHT22;9958;33.196;-97.114;2023-08-30T07:30:33;26.70;82.60
19622;DHT22;9958;33.196;-97.114;2023-08-30T07:33:02;26.60;82.70
19622;DHT22;9958;33.196;-97.114;2023-08-30T07:35:30;26.60;83.00
19622;DHT22;9958;33.196;-97.114;2023-08-30T07:37:59;26.60;83.40
19622;DHT22;9958;33.196;-97.114;2023-08-30T07:40:27;26.50;84.00
19622;DHT22;9958;33.196;-97.114;2023-08-30T07:42:55;26.50;83.50
19622;DHT22;9958;33.196;-97.114;2023-08-30T07:45:25;26.50;83.70
19622;DHT22;9958;33.196;-97.114;2023-08-30T07:47:54;26.40;83.40
19622;DHT22;9958;33.196;-97.114;2023-08-30T07:50:22;26.40;83.70
19622;DHT22;9958;33.196;-97.114;2023-08-30T07:52:50;26.40;84.40
19622;DHT22;9958;33.196;-97.114;2023-08-30T07:55:19;26.30;84.60
19622;DHT22;9958;33.196;-97.114;2023-08-30T07:57:47;26.30;84.50
19622;DHT22;9958;33.196;-97.114;2023-08-30T08:00:15;26.30;84.60
19622;DHT22;9958;33.196;-97.114;2023-08-30T08:02:46;26.30;84.50
19622;DHT22;9958;33.196;-97.114;2023-08-30T08:05:14;26.30;84.10
19622;DHT22;9958;33.196;-97.114;2023-08-30T08:07:43;26.20;84.00
19622;DHT22;9958;33.196;-97.114;2023-08-30T08:10:11;26.20;84.10
19622;DHT22;9958;33.196;-97.114;2023-08-30T08:12:40;26.20;84.90
19622;DHT22;9958;33.196;-97.114;2023-08-30T08:15:08;26.20;85.20
19622;DHT22;9958;33.196;-97.114;2023-08-30T08:17:37;26.10;85.40
19622;DHT22;9958;33.196;-97.114;2023-08-30T08:20:07;26.10;85.50
19622;DHT22;9958;33.196;-97.114;2023-08-30T08:22:36;26.10;85.60
19622;DHT22;9958;33.196;-97.114;2023-08-30T08:25:05;26.00;86.30
19622;DHT22;9958;33.196;-97.114;2023-08-30T08:27:36;26.00;86.30
19622;DHT22;9958;33.196;-97.114;2023-08-30T08:30:05;26.00;86.50
19622;DHT22;9958;33.196;-97.114;2023-08-30T08:32:34;25.90;86.90
19622;DHT22;9958;33.196;-97.114;2023-08-30T08:35:02;25.90;86.60
19622;DHT22;9958;33.196;-97.114;2023-08-30T08:37:32;25.90;87.30
19622;DHT22;9958;33.196;-97.114;2023-08-30T08:40:01;25.80;87.40
19622;DHT22;9958;33.196;-97.114;2023-08-30T08:42:35;25.80;87.40
19622;DHT22;9958;33.196;-97.114;2023-08-30T08:45:04;25.80;87.40
19622;DHT22;9958;33.196;-97.114;2023-08-30T08:47:33;25.70;87.10
19622;DHT22;9958;33.196;-97.114;2023-08-30T08:50:01;25.80;87.70
19622;DHT22;9958;33.196;-97.114;2023-08-30T08:52:31;25.70;88.20
19622;DHT22;9958;33.196;-97.114;2023-08-30T08:55:00;25.70;88.30
19622;DHT22;9958;33.196;-97.114;2023-08-30T08:57:29;25.60;88.30
19622;DHT22;9958;33.196;-97.114;2023-08-30T08:59:59;25.60;88.20
19622;DHT22;9958;33.196;-97.114;2023-08-30T09:02:28;25.60;89.10
19622;DHT22;9958;33.196;-97.114;2023-08-30T09:04:57;25.60;89.10
19622;DHT22;9958;33.196;-97.114;2023-08-30T09:07:27;25.50;88.90
19622;DHT22;9958;33.196;-97.114;2023-08-30T09:09:58;25.50;89.10
19622;DHT22;9958;33.196;-97.114;2023-08-30T09:12:26;25.50;89.00
19622;DHT22;9958;33.196;-97.114;2023-08-30T09:14:55;25.50;88.80
19622;DHT22;9958;33.196;-97.114;2023-08-30T09:17:34;25.50;88.90
19622;DHT22;9958;33.196;-97.114;2023-08-30T09:20:07;25.40;88.60
19622;DHT22;9958;33.196;-97.114;2023-08-30T09:22:39;25.40;88.80
19622;DHT22;9958;33.196;-97.114;2023-08-30T09:25:11;25.40;88.90
19622;DHT22;9958;33.196;-97.114;2023-08-30T09:27:39;25.40;89.10
19622;DHT22;9958;33.196;-97.114;2023-08-30T09:30:09;25.40;89.20
19622;DHT22;9958;33.196;-97.114;2023-08-30T09:32:41;25.40;89.30
19622;DHT22;9958;33.196;-97.114;2023-08-30T09:35:11;25.40;89.50
19622;DHT22;9958;33.196;-97.114;2023-08-30T09:37:39;25.30;90.10
19622;DHT22;9958;33.196;-97.114;2023-08-30T09:40:10;25.30;90.00
19622;DHT22;9958;33.196;-97.114;2023-08-30T09:42:41;25.20;89.80
19622;DHT22;9958;33.196;-97.114;2023-08-30T09:45:18;25.20;90.30
19622;DHT22;9958;33.196;-97.114;2023-08-30T09:47:48;25.20;90.30
19622;DHT22;9958;33.196;-97.114;2023-08-30T09:50:18;25.20;90.30
19622;DHT22;9958;33.196;-97.114;2023-08-30T09:52:47;25.20;90.30
19622;DHT22;9958;33.196;-97.114;2023-08-30T09:55:18;25.10;90.10
19622;DHT22;9958;33.196;-97.114;2023-08-30T09:57:48;25.10;90.10
19622;DHT22;9958;33.196;-97.114;2023-08-30T10:00:16;25.10;90.10
19622;DHT22;9958;33.196;-97.114;2023-08-30T10:02:45;25.00;90.10
19622;DHT22;9958;33.196;-97.114;2023-08-30T10:05:14;25.00;89.90
19622;DHT22;9958;33.196;-97.114;2023-08-30T10:07:44;25.00;90.00
19622;DHT22;9958;33.196;-97.114;2023-08-30T10:10:12;25.00;89.90
19622;DHT22;9958;33.196;-97.114;2023-08-30T10:12:46;25.00;90.20
19622;DHT22;9958;33.196;-97.114;2023-08-30T10:15:15;25.00;90.00
19622;DHT22;9958;33.196;-97.114;2023-08-30T10:17:45;24.90;90.00
19622;DHT22;9958;33.196;-97.114;2023-08-30T10:20:14;24.90;90.20
19622;DHT22;9958;33.196;-97.114;2023-08-30T10:22:44;24.90;90.30
19622;DHT22;9958;33.196;-97.114;2023-08-30T10:25:17;24.80;90.50
19622;DHT22;9958;33.196;-97.114;2023-08-30T10:27:49;24.80;90.80
19622;DHT22;9958;33.196;-97.114;2023-08-30T10:30:20;24.80;90.80
19622;DHT22;9958;33.196;-97.114;2023-08-30T10:32:49;24.80;91.20
19622;DHT22;9958;33.196;-97.114;2023-08-30T10:35:18;24.80;91.60
19622;DHT22;9958;33.196;-97.114;2023-08-30T10:37:55;24.70;91.70
19622;DHT22;9958;33.196;-97.114;2023-08-30T10:40:23;24.70;91.90
19622;DHT22;9958;33.196;-97.114;2023-08-30T10:43:03;24.70;92.30
19622;DHT22;9958;33.196;-97.114;2023-08-30T10:45:32;24.70;92.80
19622;DHT22;9958;33.196;-97.114;2023-08-30T10:48:00;24.60;93.50
19622;DHT22;9958;33.196;-97.114;2023-08-30T10:50:30;24.60;93.10
19622;DHT22;9958;33.196;-97.114;2023-08-30T10:52:59;24.60;93.10
19622;DHT22;9958;33.196;-97.114;2023-08-30T10:55:28;24.60;93.00
19622;DHT22;9958;33.196;-97.114;2023-08-30T10:58:00;24.60;92.70
19622;DHT22;9958;33.196;-97.114;2023-08-30T11:00:31;24.60;92.60
19622;DHT22;9958;33.196;-97.114;2023-08-30T11:02:59;24.60;92.70
19622;DHT22;9958;33.196;-97.114;2023-08-30T11:05:30;24.50;93.10
19622;DHT22;9958;33.196;-97.114;2023-08-30T11:07:59;24.50;93.60
19622;DHT22;9958;33.196;-97.114;2023-08-30T11:10:28;24.50;93.80
19622;DHT22;9958;33.196;-97.114;2023-08-30T11:12:56;24.40;93.40
19622;DHT22;9958;33.196;-97.114;2023-08-30T11:15:26;24.40;93.40
19622;DHT22;9958;33.196;-97.114;2023-08-30T11:18:04;24.40;93.30
19622;DHT22;9958;33.196;-97.114;2023-08-30T11:20:33;24.30;93.50
19622;DHT22;9958;33.196;-97.114;2023-08-30T11:23:03;24.30;93.70
19622;DHT22;9958;33.196;-97.114;2023-08-30T11:25:31;24.30;93.60
19622;DHT22;9958;33.196;-97.114;2023-08-30T11:28:03;24.30;93.80
19622;DHT22;9958;33.196;-97.114;2023-08-30T11:30:32;24.20;93.70
19622;DHT22;9958;33.196;-97.114;2023-08-30T11:33:00;24.20;93.60
19622;DHT22;9958;33.196;-97.114;2023-08-30T11:35:32;24.20;93.70
19622;DHT22;9958;33.196;-97.114;2023-08-30T11:38:00;24.20;93.60
19622;DHT22;9958;33.196;-97.114;2023-08-30T11:40:29;24.20;93.80
19622;DHT22;9958;33.196;-97.114;2023-08-30T11:42:57;24.20;93.90
19622;DHT22;9958;33.196;-97.114;2023-08-30T11:45:25;24.10;93.90
19622;DHT22;9958;33.196;-97.114;2023-08-30T11:47:54;24.10;94.00
19622;DHT22;9958;33.196;-97.114;2023-08-30T11:50:22;24.10;93.80
19622;DHT22;9958;33.196;-97.114;2023-08-30T11:52:52;24.10;93.90
19622;DHT22;9958;33.196;-97.114;2023-08-30T11:55:21;24.00;93.90
19622;DHT22;9958;33.196;-97.114;2023-08-30T11:57:50;24.00;94.40
19622;DHT22;9958;33.196;-97.114;2023-08-30T12:00:19;24.00;94.20
19622;DHT22;9958;33.196;-97.114;2023-08-30T12:02:48;24.00;94.40
19622;DHT22;9958;33.196;-97.114;2023-08-30T12:05:16;24.00;94.50
19622;DHT22;9958;33.196;-97.114;2023-08-30T12:07:46;24.00;94.70
19622;DHT22;9958;33.196;-97.114;2023-08-30T12:10:18;24.00;94.80
19622;DHT22;9958;33.196;-97.114;2023-08-30T12:12:47;23.90;94.90
19622;DHT22;9958;33.196;-97.114;2023-08-30T12:15:16;23.90;95.30
19622;DHT22;9958;33.196;-97.114;2023-08-30T12:17:44;23.90;95.50
19622;DHT22;9958;33.196;-97.114;2023-08-30T12:20:16;23.90;95.60
19622;DHT22;9958;33.196;-97.114;2023-08-30T12:22:46;23.90;95.90
19622;DHT22;9958;33.196;-97.114;2023-08-30T12:25:20;23.90;96.20
19622;DHT22;9958;33.196;-97.114;2023-08-30T12:27:49;23.90;96.20
19622;DHT22;9958;33.196;-97.114;2023-08-30T12:30:18;23.90;96.20
19622;DHT22;9958;33.196;-97.114;2023-08-30T12:32:47;24.00;96.50
19622;DHT22;9958;33.196;-97.114;2023-08-30T12:35:16;24.10;96.60
19622;DHT22;9958;33.196;-97.114;2023-08-30T12:37:44;24.50;96.10
19622;DHT22;9958;33.196;-97.114;2023-08-30T12:40:12;25.20;94.40
19622;DHT22;9958;33.196;-97.114;2023-08-30T12:42:42;26.00;92.60
19622;DHT22;9958;33.196;-97.114;2023-08-30T12:45:11;26.90;90.90
19622;DHT22;9958;33.196;-97.114;2023-08-30T12:47:39;27.80;87.50
19622;DHT22;9958;33.196;-97.114;2023-08-30T12:50:08;28.50;83.50
19622;DHT22;9958;33.196;-97.114;2023-08-30T12:52:36;28.90;81.20
19622;DHT22;9958;33.196;-97.114;2023-08-30T12:55:05;29.20;79.20
19622;DHT22;9958;33.196;-97.114;2023-08-30T12:57:34;29.20;79.00
19622;DHT22;9958;33.196;-97.114;2023-08-30T13:00:04;29.10;78.50
19622;DHT22;9958;33.196;-97.114;2023-08-30T13:02:33;28.90;78.60
19622;DHT22;9958;33.196;-97.114;2023-08-30T13:05:01;28.70;79.60
19622;DHT22;9958;33.196;-97.114;2023-08-30T13:07:29;28.50;80.40
19622;DHT22;9958;33.196;-97.114;2023-08-30T13:09:58;28.30;80.80
19622;DHT22;9958;33.196;-97.114;2023-08-30T13:12:26;28.20;81.90
19622;DHT22;9958;33.196;-97.114;2023-08-30T13:14:55;28.10;82.50
19622;DHT22;9958;33.196;-97.114;2023-08-30T13:17:25;27.90;82.70
19622;DHT22;9958;33.196;-97.114;2023-08-30T13:19:53;27.80;83.50
19622;DHT22;9958;33.196;-97.114;2023-08-30T13:22:21;27.80;84.10
19622;DHT22;9958;33.196;-97.114;2023-08-30T13:24:50;27.70;84.40
19622;DHT22;9958;33.196;-97.114;2023-08-30T13:27:18;27.60;84.30
19622;DHT22;9958;33.196;-97.114;2023-08-30T13:29:47;27.70;85.00
19622;DHT22;9958;33.196;-97.114;2023-08-30T13:32:15;27.70;85.00
19622;DHT22;9958;33.196;-97.114;2023-08-30T13:34:45;27.70;85.20
19622;DHT22;9958;33.196;-97.114;2023-08-30T13:37:14;27.80;85.50
19622;DHT22;9958;33.196;-97.114;2023-08-30T13:39:42;27.90;85.10
19622;DHT22;9958;33.196;-97.114;2023-08-30T13:42:10;28.00;85.40
19622;DHT22;9958;33.196;-97.114;2023-08-30T13:44:38;28.10;84.70
19622;DHT22;9958;33.196;-97.114;2023-08-30T13:47:08;28.10;83.90
19622;DHT22;9958;33.196;-97.114;2023-08-30T13:49:37;28.20;83.90
19622;DHT22;9958;33.196;-97.114;2023-08-30T13:52:07;28.30;83.30
19622;DHT22;9958;33.196;-97.114;2023-08-30T13:54:35;28.40;83.00
19622;DHT22;9958;33.196;-97.114;2023-08-30T13:57:03;28.50;81.70
19622;DHT22;9958;33.196;-97.114;2023-08-30T13:59:32;28.60;82.30
19622;DHT22;9958;33.196;-97.114;2023-08-30T14:02:02;28.70;81.80
19622;DHT22;9958;33.196;-97.114;2023-08-30T14:04:30;28.80;81.90
19622;DHT22;9958;33.196;-97.114;2023-08-30T14:07:02;29.00;80.90
19622;DHT22;9958;33.196;-97.114;2023-08-30T14:09:32;29.10;79.70
19622;DHT22;9958;33.196;-97.114;2023-08-30T14:12:01;29.30;79.10
19622;DHT22;9958;33.196;-97.114;2023-08-30T14:14:31;29.40;78.70
19622;DHT22;9958;33.196;-97.114;2023-08-30T14:16:59;29.50;79.00
19622;DHT22;9958;33.196;-97.114;2023-08-30T14:19:27;29.70;79.10
19622;DHT22;9958;33.196;-97.114;2023-08-30T14:21:56;29.80;77.80
19622;DHT22;9958;33.196;-97.114;2023-08-30T14:24:24;29.90;78.10
19622;DHT22;9958;33.196;-97.114;2023-08-30T14:26:54;30.10;77.90
19622;DHT22;9958;33.196;-97.114;2023-08-30T14:29:22;30.30;76.50
19622;DHT22;9958;33.196;-97.114;2023-08-30T14:31:51;30.40;75.20
19622;DHT22;9958;33.196;-97.114;2023-08-30T14:34:20;30.50;75.60
19622;DHT22;9958;33.196;-97.114;2023-08-30T14:36:49;30.60;75.20
19622;DHT22;9958;33.196;-97.114;2023-08-30T14:39:17;30.70;74.90
19622;DHT22;9958;33.196;-97.114;2023-08-30T14:41:45;30.80;75.00
19622;DHT22;9958;33.196;-97.114;2023-08-30T14:44:15;30.90;74.10
19622;DHT22;9958;33.196;-97.114;2023-08-30T14:46:44;31.00;74.60
19622;DHT22;9958;33.196;-97.114;2023-08-30T14:49:12;31.10;73.40
19622;DHT22;9958;33.196;-97.114;2023-08-30T14:51:40;31.30;72.50
19622;DHT22;9958;33.196;-97.114;2023-08-30T14:54:09;31.40;72.40
19622;DHT22;9958;33.196;-97.114;2023-08-30T14:56:37;31.50;71.00
19622;DHT22;9958;33.196;-97.114;2023-08-30T14:59:05;31.70;70.10
19622;DHT22;9958;33.196;-97.114;2023-08-30T15:01:35;31.70;67.60
19622;DHT22;9958;33.196;-97.114;2023-08-30T15:04:04;31.60;64.40
19622;DHT22;9958;33.196;-97.114;2023-08-30T15:06:32;31.70;66.20
19622;DHT22;9958;33.196;-97.114;2023-08-30T15:09:01;31.90;66.40
19622;DHT22;9958;33.196;-97.114;2023-08-30T15:11:29;32.00;67.20
19622;DHT22;9958;33.196;-97.114;2023-08-30T15:13:57;32.10;66.20
19622;DHT22;9958;33.196;-97.114;2023-08-30T15:16:26;32.20;63.30
19622;DHT22;9958;33.196;-97.114;2023-08-30T15:18:56;32.30;63.80
19622;DHT22;9958;33.196;-97.114;2023-08-30T15:21:24;32.40;64.60
19622;DHT22;9958;33.196;-97.114;2023-08-30T15:23:52;32.40;64.30
19622;DHT22;9958;33.196;-97.114;2023-08-30T15:26:21;32.50;62.70